sensor_id;sensor_type;location;lat;lon;timestamp;temperature;humidity
79301;SHT31;68755;51.984;5.646;2023-07-31T00:01:16;19.9;70.1
79301;SHT31;68755;51.984;5.646;2023-07-31T00:03:46;19.9;70.4
79301;SHT31;68755;51.984;5.646;2023-07-31T00:06:16;19.9;70.2
79301;SHT31;68755;51.984;5.646;2023-07-31T00:08:45;19.9;70.3
79301;SHT31;68755;51.984;5.646;2023-07-31T00:11:15;19.9;70.4
79301;SHT31;68755;51.984;5.646;2023-07-31T00:13:45;19.9;70.6
79301;SHT31;68755;51.984;5.646;2023-07-31T00:16:14;19.9;70.9
79301;SHT31;68755;51.984;5.646;2023-07-31T00:18:44;19.9;71.0
79301;SHT31;68755;51.984;5.646;2023-07-31T00:21:14;19.9;71.2
79301;SHT31;68755;51.984;5.646;2023-07-31T00:23:43;19.9;71.4
79301;SHT31;68755;51.984;5.646;2023-07-31T00:26:13;19.9;71.3
79301;SHT31;68755;51.984;5.646;2023-07-31T00:28:42;19.9;71.6
79301;SHT31;68755;51.984;5.646;2023-07-31T00:31:12;19.9;71.8
79301;SHT31;68755;51.984;5.646;2023-07-31T00:33:42;19.9;72.1
79301;SHT31;68755;51.984;5.646;2023-07-31T00:36:12;19.9;72.4
79301;SHT31;68755;51.984;5.646;2023-07-31T00:38:41;19.9;72.8
79301;SHT31;68755;51.984;5.646;2023-07-31T00:41:11;19.9;73.2
79301;SHT31;68755;51.984;5.646;2023-07-31T00:43:41;19.9;73.5
79301;SHT31;68755;51.984;5.646;2023-07-31T00:46:12;19.9;73.7
79301;SHT31;68755;51.984;5.646;2023-07-31T00:48:42;19.9;74.1
79301;SHT31;68755;51.984;5.646;2023-07-31T00:51:13;19.9;74.2
79301;SHT31;68755;51.984;5.646;2023-07-31T00:53:43;19.9;74.4
79301;SHT31;68755;51.984;5.646;2023-07-31T00:56:17;19.9;74.4
79301;SHT31;68755;51.984;5.646;2023-07-31T00:58:47;19.9;74.6
79301;SHT31;68755;51.984;5.646;2023-07-31T01:01:19;19.9;74.7
79301;SHT31;68755;51.984;5.646;2023-07-31T01:03:52;19.9;74.6
79301;SHT31;68755;51.984;5.646;2023-07-31T01:06:33;19.9;74.6
79301;SHT31;68755;51.984;5.646;2023-07-31T01:09:15;20.0;74.6
79301;SHT31;68755;51.984;5.646;2023-07-31T01:11:53;20.0;74.6
79301;SHT31;68755;51.984;5.646;2023-07-31T01:14:22;20.0;74.6
79301;SHT31;68755;51.984;5.646;2023-07-31T01:16:52;20.0;74.5
79301;SHT31;68755;51.984;5.646;2023-07-31T01:19:25;20.0;74.5
79301;SHT31;68755;51.984;5.646;2023-07-31T01:22:15;20.0;74.3
79301;SHT31;68755;51.984;5.646;2023-07-31T01:24:58;20.0;74.4
79301;SHT31;68755;51.984;5.646;2023-07-31T01:27:36;20.0;74.4
79301;SHT31;68755;51.984;5.646;2023-07-31T01:30:14;20.0;74.4
79301;SHT31;68755;51.984;5.646;2023-07-31T01:32:47;20.0;74.4
79301;SHT31;68755;51.984;5.646;2023-07-31T01:35:20;20.0;74.2
79301;SHT31;68755;51.984;5.646;2023-07-31T01:37:52;20.0;74.4
79301;SHT31;68755;51.984;5.646;2023-07-31T01:40:22;20.0;74.2
79301;SHT31;68755;51.984;5.646;2023-07-31T01:42:51;20.0;74.2
79301;SHT31;68755;51.984;5.646;2023-07-31T01:45:21;20.0;74.1
79301;SHT31;68755;51.984;5.646;2023-07-31T01:47:51;20.0;74.1
79301;SHT31;68755;51.984;5.646;2023-07-31T01:50:21;20.0;73.9
79301;SHT31;68755;51.984;5.646;2023-07-31T01:52:50;20.0;73.9
79301;SHT31;68755;51.984;5.646;2023-07-31T01:55:20;20.0;73.7
79301;SHT31;68755;51.984;5.646;2023-07-31T01:57:50;20.0;73.8
79301;SHT31;68755;51.984;5.646;2023-07-31T02:00:20;20.0;73.9
79301;SHT31;68755;51.984;5.646;2023-07-31T02:02:49;20.0;74.1
79301;SHT31;68755;51.984;5.646;2023-07-31T02:05:19;20.0;74.2
79301;SHT31;68755;51.984;5.646;2023-07-31T02:07:49;20.0;74.1
79301;SHT31;68755;51.984;5.646;2023-07-31T02:10:18;20.0;74.1
79301;SHT31;68755;51.984;5.646;2023-07-31T02:12:48;20.0;74.2
79301;SHT31;68755;51.984;5.646;2023-07-31T02:15:18;20.0;74.3
79301;SHT31;68755;51.984;5.646;2023-07-31T02:17:48;20.0;74.4
79301;SHT31;68755;51.984;5.646;2023-07-31T02:20:18;19.9;74.6
79301;SHT31;68755;51.984;5.646;2023-07-31T02:22:48;19.9;74.7
79301;SHT31;68755;51.984;5.646;2023-07-31T02:25:17;19.9;74.9
79301;SHT31;68755;51.984;5.646;2023-07-31T02:27:47;19.9;74.7
79301;SHT31;68755;51.984;5.646;2023-07-31T02:30:17;19.9;74.7
79301;SHT31;68755;51.984;5.646;2023-07-31T02:32:47;19.9;74.6
79301;SHT31;68755;51.984;5.646;2023-07-31T02:35:16;19.9;74.5
79301;SHT31;68755;51.984;5.646;2023-07-31T02:37:48;19.9;74.5
79301;SHT31;68755;51.984;5.646;2023-07-31T02:40:18;19.9;74.5
79301;SHT31;68755;51.984;5.646;2023-07-31T02:42:47;19.9;74.5
79301;SHT31;68755;51.984;5.646;2023-07-31T02:45:19;19.9;74.5
79301;SHT31;68755;51.984;5.646;2023-07-31T02:47:49;19.9;74.4
79301;SHT31;68755;51.984;5.646;2023-07-31T02:50:21;19.9;74.2
79301;SHT31;68755;51.984;5.646;2023-07-31T02:52:50;19.9;74.2
79301;SHT31;68755;51.984;5.646;2023-07-31T02:55:22;19.9;74.3
79301;SHT31;68755;51.984;5.646;2023-07-31T02:57:51;19.9;74.0
79301;SHT31;68755;51.984;5.646;2023-07-31T03:00:21;19.9;73.9
79301;SHT31;68755;51.984;5.646;2023-07-31T03:02:51;19.9;73.6
79301;SHT31;68755;51.984;5.646;2023-07-31T03:05:21;19.9;73.8
79301;SHT31;68755;51.984;5.646;2023-07-31T03:07:51;19.8;73.6
79301;SHT31;68755;51.984;5.646;2023-07-31T03:10:22;19.8;73.6
79301;SHT31;68755;51.984;5.646;2023-07-31T03:12:52;19.8;73.6
79301;SHT31;68755;51.984;5.646;2023-07-31T03:15:22;19.8;73.6
79301;SHT31;68755;51.984;5.646;2023-07-31T03:17:52;19.8;73.3
79301;SHT31;68755;51.984;5.646;2023-07-31T03:20:21;19.8;73.2
79301;SHT31;68755;51.984;5.646;2023-07-31T03:22:51;19.8;73.3
79301;SHT31;68755;51.984;5.646;2023-07-31T03:25:20;19.8;73.2
79301;SHT31;68755;51.984;5.646;2023-07-31T03:27:50;19.8;73.1
79301;SHT31;68755;51.984;5.646;2023-07-31T03:30:20;19.8;73.3
79301;SHT31;68755;51.984;5.646;2023-07-31T03:32:49;19.8;73.1
79301;SHT31;68755;51.984;5.646;2023-07-31T03:35:19;19.8;73.1
79301;SHT31;68755;51.984;5.646;2023-07-31T03:37:49;19.8;72.8
79301;SHT31;68755;51.984;5.646;2023-07-31T03:40:19;19.8;72.5
79301;SHT31;68755;51.984;5.646;2023-07-31T03:42:48;19.8;72.8
79301;SHT31;68755;51.984;5.646;2023-07-31T03:45:18;19.7;72.6
79301;SHT31;68755;51.984;5.646;2023-07-31T03:47:48;19.7;72.6
79301;SHT31;68755;51.984;5.646;2023-07-31T03:50:18;19.7;72.6
79301;SHT31;68755;51.984;5.646;2023-07-31T03:52:47;19.7;72.7
79301;SHT31;68755;51.984;5.646;2023-07-31T03:55:17;19.7;72.5
79301;SHT31;68755;51.984;5.646;2023-07-31T03:57:47;19.7;72.5
79301;SHT31;68755;51.984;5.646;2023-07-31T04:00:17;19.7;72.4
79301;SHT31;68755;51.984;5.646;2023-07-31T04:02:48;19.7;72.4
79301;SHT31;68755;51.984;5.646;2023-07-31T04:05:18;19.7;72.1
79301;SHT31;68755;51.984;5.646;2023-07-31T04:07:47;19.7;72.0
79301;SHT31;68755;51.984;5.646;2023-07-31T04:10:17;19.7;71.6
79301;SHT31;68755;51.984;5.646;2023-07-31T04:12:47;19.7;72.1
79301;SHT31;68755;51.984;5.646;2023-07-31T04:15:17;19.7;71.9
79301;SHT31;68755;51.984;5.646;2023-07-31T04:17:46;19.7;71.7
79301;SHT31;68755;51.984;5.646;2023-07-31T04:20:16;19.7;71.5
79301;SHT31;68755;51.984;5.646;2023-07-31T04:22:46;19.7;71.6
79301;SHT31;68755;51.984;5.646;2023-07-31T04:25:15;19.7;71.3
79301;SHT31;68755;51.984;5.646;2023-07-31T04:27:47;19.7;70.8
79301;SHT31;68755;51.984;5.646;2023-07-31T04:30:19;19.7;71.6
79301;SHT31;68755;51.984;5.646;2023-07-31T04:32:48;19.7;71.3
79301;SHT31;68755;51.984;5.646;2023-07-31T04:35:18;19.7;71.5
79301;SHT31;68755;51.984;5.646;2023-07-31T04:37:48;19.7;71.7
79301;SHT31;68755;51.984;5.646;2023-07-31T04:40:18;19.7;71.3
79301;SHT31;68755;51.984;5.646;2023-07-31T04:42:47;19.7;71.4
79301;SHT31;68755;51.984;5.646;2023-07-31T04:45:17;19.7;71.2
79301;SHT31;68755;51.984;5.646;2023-07-31T04:47:49;19.7;71.4
79301;SHT31;68755;51.984;5.646;2023-07-31T04:50:18;19.7;71.1
79301;SHT31;68755;51.984;5.646;2023-07-31T04:52:48;19.7;71.2
79301;SHT31;68755;51.984;5.646;2023-07-31T04:55:18;19.7;71.2
79301;SHT31;68755;51.984;5.646;2023-07-31T04:57:48;19.7;71.3
79301;SHT31;68755;51.984;5.646;2023-07-31T05:00:18;19.7;71.5
79301;SHT31;68755;51.984;5.646;2023-07-31T05:02:47;19.7;71.5
79301;SHT31;68755;51.984;5.646;2023-07-31T05:05:17;19.7;71.7
79301;SHT31;68755;51.984;5.646;2023-07-31T05:07:47;19.7;71.8
79301;SHT31;68755;51.984;5.646;2023-07-31T05:10:17;19.7;71.7
79301;SHT31;68755;51.984;5.646;2023-07-31T05:12:47;19.7;71.5
79301;SHT31;68755;51.984;5.646;2023-07-31T05:15:17;19.7;71.6
79301;SHT31;68755;51.984;5.646;2023-07-31T05:17:46;19.7;71.7
79301;SHT31;68755;51.984;5.646;2023-07-31T05:20:16;19.7;71.9
79301;SHT31;68755;51.984;5.646;2023-07-31T05:22:46;19.7;72.5
79301;SHT31;68755;51.984;5.646;2023-07-31T05:25:15;19.7;72.5
79301;SHT31;68755;51.984;5.646;2023-07-31T05:27:45;19.7;72.6
79301;SHT31;68755;51.984;5.646;2023-07-31T05:30:17;19.7;72.5
79301;SHT31;68755;51.984;5.646;2023-07-31T05:32:47;19.7;72.7
79301;SHT31;68755;51.984;5.646;2023-07-31T05:35:16;19.7;72.9
79301;SHT31;68755;51.984;5.646;2023-07-31T05:37:46;19.7;73.2
79301;SHT31;68755;51.984;5.646;2023-07-31T05:40:16;19.7;73.4
79301;SHT31;68755;51.984;5.646;2023-07-31T05:42:46;19.7;73.1
79301;SHT31;68755;51.984;5.646;2023-07-31T05:45:15;19.7;73.4
79301;SHT31;68755;51.984;5.646;2023-07-31T05:47:45;19.7;73.6
79301;SHT31;68755;51.984;5.646;2023-07-31T05:50:15;19.6;73.5
79301;SHT31;68755;51.984;5.646;2023-07-31T05:52:45;19.6;73.7
79301;SHT31;68755;51.984;5.646;2023-07-31T05:55:14;19.6;73.8
79301;SHT31;68755;51.984;5.646;2023-07-31T05:57:44;19.6;73.8
79301;SHT31;68755;51.984;5.646;2023-07-31T06:00:14;19.6;73.9
79301;SHT31;68755;51.984;5.646;2023-07-31T06:02:46;19.6;74.3
79301;SHT31;68755;51.984;5.646;2023-07-31T06:05:18;19.5;74.2
79301;SHT31;68755;51.984;5.646;2023-07-31T06:07:47;19.5;74.4
79301;SHT31;68755;51.984;5.646;2023-07-31T06:10:17;19.5;74.6
79301;SHT31;68755;51.984;5.646;2023-07-31T06:12:47;19.5;74.7
79301;SHT31;68755;51.984;5.646;2023-07-31T06:15:17;19.5;75.2
79301;SHT31;68755;51.984;5.646;2023-07-31T06:17:47;19.5;75.0
79301;SHT31;68755;51.984;5.646;2023-07-31T06:20:19;19.6;74.9
79301;SHT31;68755;51.984;5.646;2023-07-31T06:22:48;19.6;75.3
79301;SHT31;68755;51.984;5.646;2023-07-31T06:25:18;19.6;75.4
79301;SHT31;68755;51.984;5.646;2023-07-31T06:27:47;19.6;75.4
79301;SHT31;68755;51.984;5.646;2023-07-31T06:30:17;19.6;75.5
79301;SHT31;68755;51.984;5.646;2023-07-31T06:32:47;19.6;75.6
79301;SHT31;68755;51.984;5.646;2023-07-31T06:35:17;19.6;75.7
79301;SHT31;68755;51.984;5.646;2023-07-31T06:37:47;19.6;75.8
79301;SHT31;68755;51.984;5.646;2023-07-31T06:40:16;19.6;75.6
79301;SHT31;68755;51.984;5.646;2023-07-31T06:42:46;19.6;75.8
79301;SHT31;68755;51.984;5.646;2023-07-31T06:45:16;19.6;75.6
79301;SHT31;68755;51.984;5.646;2023-07-31T06:47:46;19.6;75.7
79301;SHT31;68755;51.984;5.646;2023-07-31T06:50:15;19.6;75.7
79301;SHT31;68755;51.984;5.646;2023-07-31T06:52:45;19.6;75.7
79301;SHT31;68755;51.984;5.646;2023-07-31T06:55:19;19.6;75.9
79301;SHT31;68755;51.984;5.646;2023-07-31T06:57:51;19.6;75.8
79301;SHT31;68755;51.984;5.646;2023-07-31T07:00:23;19.7;76.1
79301;SHT31;68755;51.984;5.646;2023-07-31T07:02:53;19.7;76.1
79301;SHT31;68755;51.984;5.646;2023-07-31T07:05:22;19.7;76.4
79301;SHT31;68755;51.984;5.646;2023-07-31T07:07:52;19.7;76.4
79301;SHT31;68755;51.984;5.646;2023-07-31T07:10:22;19.7;76.5
79301;SHT31;68755;51.984;5.646;2023-07-31T07:12:53;19.7;76.7
79301;SHT31;68755;51.984;5.646;2023-07-31T07:15:22;19.7;76.8
79301;SHT31;68755;51.984;5.646;2023-07-31T07:17:52;19.7;76.9
79301;SHT31;68755;51.984;5.646;2023-07-31T07:20:22;19.7;76.7
79301;SHT31;68755;51.984;5.646;2023-07-31T07:22:51;19.7;76.8
79301;SHT31;68755;51.984;5.646;2023-07-31T07:25:21;19.8;77.0
79301;SHT31;68755;51.984;5.646;2023-07-31T07:27:51;19.8;77.1
79301;SHT31;68755;51.984;5.646;2023-07-31T07:30:20;19.8;76.7
79301;SHT31;68755;51.984;5.646;2023-07-31T07:32:54;19.8;76.6
79301;SHT31;68755;51.984;5.646;2023-07-31T07:35:24;19.8;76.7
79301;SHT31;68755;51.984;5.646;2023-07-31T07:37:53;19.8;76.6
79301;SHT31;68755;51.984;5.646;2023-07-31T07:40:24;19.8;76.4
79301;SHT31;68755;51.984;5.646;2023-07-31T07:42:54;19.8;76.5
79301;SHT31;68755;51.984;5.646;2023-07-31T07:45:24;19.8;76.4
79301;SHT31;68755;51.984;5.646;2023-07-31T07:47:53;19.8;76.5
79301;SHT31;68755;51.984;5.646;2023-07-31T07:50:23;19.8;76.6
79301;SHT31;68755;51.984;5.646;2023-07-31T07:52:53;19.8;76.7
79301;SHT31;68755;51.984;5.646;2023-07-31T07:55:24;19.8;76.8
79301;SHT31;68755;51.984;5.646;2023-07-31T07:57:54;19.8;77.0
79301;SHT31;68755;51.984;5.646;2023-07-31T08:00:24;19.8;76.9
79301;SHT31;68755;51.984;5.646;2023-07-31T08:02:54;19.8;76.9
79301;SHT31;68755;51.984;5.646;2023-07-31T08:05:24;19.8;77.2
79301;SHT31;68755;51.984;5.646;2023-07-31T08:07:54;19.8;77.2
79301;SHT31;68755;51.984;5.646;2023-07-31T08:10:24;19.9;77.0
79301;SHT31;68755;51.984;5.646;2023-07-31T08:12:53;19.9;76.7
79301;SHT31;68755;51.984;5.646;2023-07-31T08:15:23;19.9;77.2
79301;SHT31;68755;51.984;5.646;2023-07-31T08:17:53;19.9;77.2
79301;SHT31;68755;51.984;5.646;2023-07-31T08:20:23;19.9;77.3
79301;SHT31;68755;51.984;5.646;2023-07-31T08:22:54;19.9;77.4
79301;SHT31;68755;51.984;5.646;2023-07-31T08:25:25;19.9;77.6
79301;SHT31;68755;51.984;5.646;2023-07-31T08:27:55;19.9;77.4
79301;SHT31;68755;51.984;5.646;2023-07-31T08:30:25;19.9;77.6
79301;SHT31;68755;51.984;5.646;2023-07-31T08:32:55;19.9;77.6
79301;SHT31;68755;51.984;5.646;2023-07-31T08:35:26;19.9;78.0
79301;SHT31;68755;51.984;5.646;2023-07-31T08:37:56;19.9;78.0
79301;SHT31;68755;51.984;5.646;2023-07-31T08:40:26;19.9;77.9
79301;SHT31;68755;51.984;5.646;2023-07-31T08:42:56;20.0;78.1
79301;SHT31;68755;51.984;5.646;2023-07-31T08:45:30;20.0;78.0
79301;SHT31;68755;51.984;5.646;2023-07-31T08:48:00;20.0;78.3
79301;SHT31;68755;51.984;5.646;2023-07-31T08:50:30;20.0;78.1
79301;SHT31;68755;51.984;5.646;2023-07-31T08:53:00;20.0;78.1
79301;SHT31;68755;51.984;5.646;2023-07-31T08:55:32;20.0;78.1
79301;SHT31;68755;51.984;5.646;2023-07-31T08:58:04;20.1;77.7
79301;SHT31;68755;51.984;5.646;2023-07-31T09:00:34;20.1;77.6
79301;SHT31;68755;51.984;5.646;2023-07-31T09:03:09;20.1;77.5
79301;SHT31;68755;51.984;5.646;2023-07-31T09:05:42;20.1;77.7
79301;SHT31;68755;51.984;5.646;2023-07-31T09:08:14;20.1;77.5
79301;SHT31;68755;51.984;5.646;2023-07-31T09:10:46;20.1;77.4
79301;SHT31;68755;51.984;5.646;2023-07-31T09:13:17;20.1;77.4
79301;SHT31;68755;51.984;5.646;2023-07-31T09:15:47;20.1;77.6
79301;SHT31;68755;51.984;5.646;2023-07-31T09:18:17;20.1;77.7
79301;SHT31;68755;51.984;5.646;2023-07-31T09:21:02;20.1;77.6
79301;SHT31;68755;51.984;5.646;2023-07-31T09:24:07;20.1;77.5
79301;SHT31;68755;51.984;5.646;2023-07-31T09:26:37;20.1;77.7
79301;SHT31;68755;51.984;5.646;2023-07-31T09:29:18;20.1;77.7
79301;SHT31;68755;51.984;5.646;2023-07-31T09:31:48;20.1;77.5
79301;SHT31;68755;51.984;5.646;2023-07-31T09:34:18;20.1;77.5
79301;SHT31;68755;51.984;5.646;2023-07-31T09:36:50;20.1;77.3
79301;SHT31;68755;51.984;5.646;2023-07-31T09:39:20;20.1;77.4
79301;SHT31;68755;51.984;5.646;2023-07-31T09:41:54;20.1;77.8
79301;SHT31;68755;51.984;5.646;2023-07-31T09:44:40;20.1;77.8
79301;SHT31;68755;51.984;5.646;2023-07-31T09:47:23;20.2;78.3
79301;SHT31;68755;51.984;5.646;2023-07-31T09:49:54;20.2;78.5
79301;SHT31;68755;51.984;5.646;2023-07-31T09:52:26;20.2;78.5
79301;SHT31;68755;51.984;5.646;2023-07-31T09:54:55;20.3;77.8
79301;SHT31;68755;51.984;5.646;2023-07-31T09:57:27;20.3;77.7
79301;SHT31;68755;51.984;5.646;2023-07-31T09:59:58;20.3;77.4
79301;SHT31;68755;51.984;5.646;2023-07-31T10:02:30;20.3;77.2
79301;SHT31;68755;51.984;5.646;2023-07-31T10:05:02;20.3;77.3
79301;SHT31;68755;51.984;5.646;2023-07-31T10:07:36;20.4;77.4
79301;SHT31;68755;51.984;5.646;2023-07-31T10:10:09;20.4;77.4
79301;SHT31;68755;51.984;5.646;2023-07-31T10:12:39;20.4;77.3
79301;SHT31;68755;51.984;5.646;2023-07-31T10:15:09;20.4;77.4
79301;SHT31;68755;51.984;5.646;2023-07-31T10:17:40;20.4;77.5
79301;SHT31;68755;51.984;5.646;2023-07-31T10:20:10;20.4;77.7
79301;SHT31;68755;51.984;5.646;2023-07-31T10:22:41;20.4;77.5
79301;SHT31;68755;51.984;5.646;2023-07-31T10:25:13;20.5;77.2
79301;SHT31;68755;51.984;5.646;2023-07-31T10:27:42;20.5;77.4
79301;SHT31;68755;51.984;5.646;2023-07-31T10:30:15;20.5;77.5
79301;SHT31;68755;51.984;5.646;2023-07-31T10:32:47;20.5;77.6
79301;SHT31;68755;51.984;5.646;2023-07-31T10:35:18;20.6;77.6
79301;SHT31;68755;51.984;5.646;2023-07-31T10:37:49;20.6;77.5
79301;SHT31;68755;51.984;5.646;2023-07-31T10:40:27;20.6;77.7
79301;SHT31;68755;51.984;5.646;2023-07-31T10:42:57;20.6;77.7
79301;SHT31;68755;51.984;5.646;2023-07-31T10:45:35;20.6;77.7
79301;SHT31;68755;51.984;5.646;2023-07-31T10:48:06;20.7;77.4
79301;SHT31;68755;51.984;5.646;2023-07-31T10:50:48;20.7;77.0
79301;SHT31;68755;51.984;5.646;2023-07-31T10:53:30;20.7;77.3
79301;SHT31;68755;51.984;5.646;2023-07-31T10:56:00;20.8;77.8
79301;SHT31;68755;51.984;5.646;2023-07-31T10:58:31;20.8;77.7
79301;SHT31;68755;51.984;5.646;2023-07-31T11:01:04;20.8;77.6
79301;SHT31;68755;51.984;5.646;2023-07-31T11:03:45;20.8;77.5
79301;SHT31;68755;51.984;5.646;2023-07-31T11:06:16;20.9;77.4
79301;SHT31;68755;51.984;5.646;2023-07-31T11:08:47;20.9;77.3
79301;SHT31;68755;51.984;5.646;2023-07-31T11:11:18;20.9;77.5
79301;SHT31;68755;51.984;5.646;2023-07-31T11:13:50;20.9;77.4
79301;SHT31;68755;51.984;5.646;2023-07-31T11:16:21;21.0;77.2
79301;SHT31;68755;51.984;5.646;2023-07-31T11:18:52;21.0;77.3
79301;SHT31;68755;51.984;5.646;2023-07-31T11:21:24;21.0;77.6
79301;SHT31;68755;51.984;5.646;2023-07-31T11:23:57;21.0;77.4
79301;SHT31;68755;51.984;5.646;2023-07-31T11:26:27;21.0;77.3
79301;SHT31;68755;51.984;5.646;2023-07-31T11:28:58;21.0;76.7
79301;SHT31;68755;51.984;5.646;2023-07-31T11:31:27;21.0;77.0
79301;SHT31;68755;51.984;5.646;2023-07-31T11:34:06;21.0;77.2
79301;SHT31;68755;51.984;5.646;2023-07-31T11:36:36;21.1;77.0
79301;SHT31;68755;51.984;5.646;2023-07-31T11:39:08;21.1;76.5
79301;SHT31;68755;51.984;5.646;2023-07-31T11:41:40;21.1;76.5
79301;SHT31;68755;51.984;5.646;2023-07-31T11:44:10;21.2;76.5
79301;SHT31;68755;51.984;5.646;2023-07-31T11:46:40;21.2;76.7
79301;SHT31;68755;51.984;5.646;2023-07-31T11:49:11;21.2;76.7
79301;SHT31;68755;51.984;5.646;2023-07-31T11:51:42;21.2;76.5
79301;SHT31;68755;51.984;5.646;2023-07-31T11:54:12;21.2;76.6
79301;SHT31;68755;51.984;5.646;2023-07-31T11:56:43;21.2;76.4
79301;SHT31;68755;51.984;5.646;2023-07-31T11:59:14;21.2;75.9
79301;SHT31;68755;51.984;5.646;2023-07-31T12:01:45;21.2;76.0
79301;SHT31;68755;51.984;5.646;2023-07-31T12:04:18;21.2;76.3
79301;SHT31;68755;51.984;5.646;2023-07-31T12:06:49;21.3;75.6
79301;SHT31;68755;51.984;5.646;2023-07-31T12:09:19;21.3;75.9
79301;SHT31;68755;51.984;5.646;2023-07-31T12:11:49;21.3;75.7
79301;SHT31;68755;51.984;5.646;2023-07-31T12:14:24;21.3;76.4
79301;SHT31;68755;51.984;5.646;2023-07-31T12:16:57;21.3;76.1
79301;SHT31;68755;51.984;5.646;2023-07-31T12:19:27;21.3;75.9
79301;SHT31;68755;51.984;5.646;2023-07-31T12:21:58;21.3;76.0
79301;SHT31;68755;51.984;5.646;2023-07-31T12:24:28;21.3;75.8
79301;SHT31;68755;51.984;5.646;2023-07-31T12:26:58;21.4;75.8
79301;SHT31;68755;51.984;5.646;2023-07-31T12:29:35;21.4;75.6
79301;SHT31;68755;51.984;5.646;2023-07-31T12:32:22;21.4;75.1
79301;SHT31;68755;51.984;5.646;2023-07-31T12:34:52;21.4;75.3
79301;SHT31;68755;51.984;5.646;2023-07-31T12:37:22;21.4;75.6
79301;SHT31;68755;51.984;5.646;2023-07-31T12:39:52;21.3;75.8
79301;SHT31;68755;51.984;5.646;2023-07-31T12:42:21;21.3;76.4
79301;SHT31;68755;51.984;5.646;2023-07-31T12:44:51;21.4;76.4
79301;SHT31;68755;51.984;5.646;2023-07-31T12:47:21;21.4;76.3
79301;SHT31;68755;51.984;5.646;2023-07-31T12:49:50;21.4;76.3
79301;SHT31;68755;51.984;5.646;2023-07-31T12:52:20;21.4;76.6
79301;SHT31;68755;51.984;5.646;2023-07-31T12:54:50;21.4;76.6
79301;SHT31;68755;51.984;5.646;2023-07-31T12:57:19;21.4;76.7
79301;SHT31;68755;51.984;5.646;2023-07-31T12:59:50;21.4;77.0
79301;SHT31;68755;51.984;5.646;2023-07-31T13:02:20;21.5;77.4
79301;SHT31;68755;51.984;5.646;2023-07-31T13:04:50;21.5;76.6
79301;SHT31;68755;51.984;5.646;2023-07-31T13:07:21;21.5;76.8
79301;SHT31;68755;51.984;5.646;2023-07-31T13:09:51;21.5;76.3
79301;SHT31;68755;51.984;5.646;2023-07-31T13:12:21;21.6;76.0
79301;SHT31;68755;51.984;5.646;2023-07-31T13:14:51;21.6;75.3
79301;SHT31;68755;51.984;5.646;2023-07-31T13:17:20;21.6;75.6
79301;SHT31;68755;51.984;5.646;2023-07-31T13:19:50;21.6;74.9
79301;SHT31;68755;51.984;5.646;2023-07-31T13:22:20;21.6;74.8
79301;SHT31;68755;51.984;5.646;2023-07-31T13:24:50;21.6;75.0
79301;SHT31;68755;51.984;5.646;2023-07-31T13:27:20;21.6;75.0
79301;SHT31;68755;51.984;5.646;2023-07-31T13:29:50;21.6;75.0
79301;SHT31;68755;51.984;5.646;2023-07-31T13:32:21;21.6;74.7
79301;SHT31;68755;51.984;5.646;2023-07-31T13:34:51;21.7;75.1
79301;SHT31;68755;51.984;5.646;2023-07-31T13:37:23;21.7;74.7
79301;SHT31;68755;51.984;5.646;2023-07-31T13:39:54;21.7;75.5
79301;SHT31;68755;51.984;5.646;2023-07-31T13:42:24;21.7;75.8
79301;SHT31;68755;51.984;5.646;2023-07-31T13:44:56;21.7;75.7
79301;SHT31;68755;51.984;5.646;2023-07-31T13:47:28;21.7;75.1
79301;SHT31;68755;51.984;5.646;2023-07-31T13:49:58;21.7;75.0
79301;SHT31;68755;51.984;5.646;2023-07-31T13:52:28;21.7;75.2
79301;SHT31;68755;51.984;5.646;2023-07-31T13:54:57;21.6;75.4
79301;SHT31;68755;51.984;5.646;2023-07-31T13:57:27;21.6;75.8
79301;SHT31;68755;51.984;5.646;2023-07-31T13:59:57;21.6;75.8
79301;SHT31;68755;51.984;5.646;2023-07-31T14:02:26;21.6;75.7
79301;SHT31;68755;51.984;5.646;2023-07-31T14:04:56;21.6;76.1
79301;SHT31;68755;51.984;5.646;2023-07-31T14:07:26;21.6;75.6
79301;SHT31;68755;51.984;5.646;2023-07-31T14:09:55;21.6;75.5
79301;SHT31;68755;51.984;5.646;2023-07-31T14:12:25;21.6;75.7
79301;SHT31;68755;51.984;5.646;2023-07-31T14:14:55;21.6;75.8
79301;SHT31;68755;51.984;5.646;2023-07-31T14:17:24;21.6;75.8
79301;SHT31;68755;51.984;5.646;2023-07-31T14:19:54;21.6;75.7
79301;SHT31;68755;51.984;5.646;2023-07-31T14:22:29;21.6;76.0
79301;SHT31;68755;51.984;5.646;2023-07-31T14:25:01;21.6;76.0
79301;SHT31;68755;51.984;5.646;2023-07-31T14:27:31;21.6;76.0
79301;SHT31;68755;51.984;5.646;2023-07-31T14:30:01;21.6;75.6
79301;SHT31;68755;51.984;5.646;2023-07-31T14:32:32;21.5;75.6
79301;SHT31;68755;51.984;5.646;2023-07-31T14:35:04;21.5;75.5
79301;SHT31;68755;51.984;5.646;2023-07-31T14:37:39;21.5;75.6
79301;SHT31;68755;51.984;5.646;2023-07-31T14:40:10;21.5;75.6
79301;SHT31;68755;51.984;5.646;2023-07-31T14:42:40;21.5;75.8
79301;SHT31;68755;51.984;5.646;2023-07-31T14:45:12;21.5;76.1
79301;SHT31;68755;51.984;5.646;2023-07-31T14:47:42;21.5;76.1
79301;SHT31;68755;51.984;5.646;2023-07-31T14:50:12;21.5;76.0
79301;SHT31;68755;51.984;5.646;2023-07-31T14:52:42;21.5;76.1
79301;SHT31;68755;51.984;5.646;2023-07-31T14:55:11;21.5;76.1
79301;SHT31;68755;51.984;5.646;2023-07-31T14:57:41;21.5;76.1
79301;SHT31;68755;51.984;5.646;2023-07-31T15:00:11;21.5;76.1
79301;SHT31;68755;51.984;5.646;2023-07-31T15:02:42;21.5;76.2
79301;SHT31;68755;51.984;5.646;2023-07-31T15:05:11;21.5;76.0
79301;SHT31;68755;51.984;5.646;2023-07-31T15:07:41;21.5;76.1
79301;SHT31;68755;51.984;5.646;2023-07-31T15:10:11;21.5;76.1
79301;SHT31;68755;51.984;5.646;2023-07-31T15:12:42;21.5;76.2
79301;SHT31;68755;51.984;5.646;2023-07-31T15:15:12;21.5;75.9
79301;SHT31;68755;51.984;5.646;2023-07-31T15:17:41;21.5;76.2
79301;SHT31;68755;51.984;5.646;2023-07-31T15:20:11;21.5;75.8
79301;SHT31;68755;51.984;5.646;2023-07-31T15:22:42;21.5;75.9
79301;SHT31;68755;51.984;5.646;2023-07-31T15:25:14;21.5;75.8
79301;SHT31;68755;51.984;5.646;2023-07-31T15:27:43;21.5;75.8
79301;SHT31;68755;51.984;5.646;2023-07-31T15:30:13;21.5;76.1
79301;SHT31;68755;51.984;5.646;2023-07-31T15:32:43;21.5;76.2
79301;SHT31;68755;51.984;5.646;2023-07-31T15:35:16;21.5;76.1
79301;SHT31;68755;51.984;5.646;2023-07-31T15:37:46;21.5;76.2
79301;SHT31;68755;51.984;5.646;2023-07-31T15:40:16;21.5;76.3
79301;SHT31;68755;51.984;5.646;2023-07-31T15:42:47;21.5;76.1
79301;SHT31;68755;51.984;5.646;2023-07-31T15:45:17;21.5;76.3
79301;SHT31;68755;51.984;5.646;2023-07-31T15:47:47;21.5;75.9
79301;SHT31;68755;51.984;5.646;2023-07-31T15:50:17;21.5;76.0
79301;SHT31;68755;51.984;5.646;2023-07-31T15:52:47;21.5;75.8
79301;SHT31;68755;51.984;5.646;2023-07-31T15:55:19;21.5;75.9
79301;SHT31;68755;51.984;5.646;2023-07-31T15:57:49;21.5;75.9
79301;SHT31;68755;51.984;5.646;2023-07-31T16:00:19;21.5;76.1
79301;SHT31;68755;51.984;5.646;2023-07-31T16:02:49;21.5;75.9
79301;SHT31;68755;51.984;5.646;2023-07-31T16:05:19;21.4;76.0
79301;SHT31;68755;51.984;5.646;2023-07-31T16:07:48;21.4;75.9
79301;SHT31;68755;51.984;5.646;2023-07-31T16:10:18;21.4;75.9
79301;SHT31;68755;51.984;5.646;2023-07-31T16:12:48;21.4;75.6
79301;SHT31;68755;51.984;5.646;2023-07-31T16:15:17;21.4;75.7
79301;SHT31;68755;51.984;5.646;2023-07-31T16:17:47;21.4;76.0
79301;SHT31;68755;51.984;5.646;2023-07-31T16:20:17;21.4;76.1
79301;SHT31;68755;51.984;5.646;2023-07-31T16:22:48;21.4;75.9
79301;SHT31;68755;51.984;5.646;2023-07-31T16:25:18;21.4;75.7